sensor_id;sensor_type;location;lat;lon;timestamp;pressure;altitude;pressure_sealevel;temperature;humidity
59600;BME280;61855;55.030;73.326;2022-08-04T00:01:08;100602.06;;;15.51;nan
59600;BME280;61855;55.030;73.326;2022-08-04T00:03:50;100595.16;;;15.49;nan
59600;BME280;61855;55.030;73.326;2022-08-04T00:06:42;100596.59;;;15.45;nan
59600;BME280;61855;55.030;73.326;2022-08-04T00:09:16;100596.09;;;15.41;nan
59600;BME280;61855;55.030;73.326;2022-08-04T00:11:53;100597.34;;;15.39;nan
59600;BME280;61855;55.030;73.326;2022-08-04T00:14:33;100601.28;;;15.36;nan
59600;BME280;61855;55.030;73.326;2022-08-04T00:17:04;100587.28;;;15.33;nan
59600;BME280;61855;55.030;73.326;2022-08-04T00:19:40;100598.16;;;15.33;nan
59600;BME280;61855;55.030;73.326;2022-08-04T00:22:22;100593.94;;;15.30;nan
59600;BME280;61855;55.030;73.326;2022-08-04T00:24:52;100595.81;;;15.30;nan
59600;BME280;61855;55.030;73.326;2022-08-04T00:27:24;100593.94;;;15.30;nan
59600;BME280;61855;55.030;73.326;2022-08-04T00:29:50;100600.19;;;15.31;nan
59600;BME280;61855;55.030;73.326;2022-08-04T00:32:17;100608.19;;;15.32;nan
59600;BME280;61855;55.030;73.326;2022-08-04T00:34:43;100594.75;;;15.31;nan
59600;BME280;61855;55.030;73.326;2022-08-04T00:37:11;100598.16;;;15.33;nan
59600;BME280;61855;55.030;73.326;2022-08-04T00:39:39;100608.59;;;15.36;nan
59600;BME280;61855;55.030;73.326;2022-08-04T00:51:07;100604.97;;;15.50;nan
59600;BME280;61855;55.030;73.326;2022-08-04T00:56:41;100602.50;;;15.55;nan
59600;BME280;61855;55.030;73.326;2022-08-04T01:02:02;100610.94;;;15.67;nan
59600;BME280;61855;55.030;73.326;2022-08-04T01:10:39;100616.47;;;15.80;nan
59600;BME280;61855;55.030;73.326;2022-08-04T01:16:09;100629.94;;;15.94;nan
59600;BME280;61855;55.030;73.326;2022-08-04T01:18:58;100622.66;;;16.01;nan
59600;BME280;61855;55.030;73.326;2022-08-04T01:21:30;100624.56;;;16.07;nan
59600;BME280;61855;55.030;73.326;2022-08-04T01:24:27;100623.78;;;16.13;nan
59600;BME280;61855;55.030;73.326;2022-08-04T01:27:05;100631.31;;;16.18;nan
59600;BME280;61855;55.030;73.326;2022-08-04T01:29:49;100627.78;;;16.24;nan
59600;BME280;61855;55.030;73.326;2022-08-04T01:35:24;100627.00;;;16.37;nan
59600;BME280;61855;55.030;73.326;2022-08-04T01:40:36;100630.44;;;16.52;nan
59600;BME280;61855;55.030;73.326;2022-08-04T01:43:03;100632.53;;;16.56;nan
59600;BME280;61855;55.030;73.326;2022-08-04T01:45:30;100624.56;;;16.55;nan
59600;BME280;61855;55.030;73.326;2022-08-04T01:47:56;100636.34;;;16.68;nan
59600;BME280;61855;55.030;73.326;2022-08-04T01:50:23;100634.88;;;16.79;nan
59600;BME280;61855;55.030;73.326;2022-08-04T01:52:54;100635.75;;;16.86;nan
59600;BME280;61855;55.030;73.326;2022-08-04T01:55:21;100638.06;;;16.96;nan
59600;BME280;61855;55.030;73.326;2022-08-04T01:57:50;100634.91;;;17.05;nan
59600;BME280;61855;55.030;73.326;2022-08-04T02:00:19;100638.94;;;17.16;nan
59600;BME280;61855;55.030;73.326;2022-08-04T02:02:46;100635.78;;;17.25;nan
59600;BME280;61855;55.030;73.326;2022-08-04T02:05:17;100639.97;;;17.34;nan
59600;BME280;61855;55.030;73.326;2022-08-04T02:07:49;100646.66;;;17.45;nan
59600;BME280;61855;55.030;73.326;2022-08-04T02:13:33;100646.69;;;17.58;nan
59600;BME280;61855;55.030;73.326;2022-08-04T02:21:02;100643.09;;;17.84;nan
59600;BME280;61855;55.030;73.326;2022-08-04T02:23:34;100641.19;;;17.91;nan
59600;BME280;61855;55.030;73.326;2022-08-04T02:26:12;100647.47;;;17.98;nan
59600;BME280;61855;55.030;73.326;2022-08-04T02:31:40;100651.41;;;18.15;nan
59600;BME280;61855;55.030;73.326;2022-08-04T02:34:07;100642.97;;;18.23;nan
59600;BME280;61855;55.030;73.326;2022-08-04T02:36:41;100652.38;;;18.34;nan
59600;BME280;61855;55.030;73.326;2022-08-04T02:39:09;100641.22;;;18.42;nan
59600;BME280;61855;55.030;73.326;2022-08-04T02:41:37;100640.16;;;18.49;nan
59600;BME280;61855;55.030;73.326;2022-08-04T02:44:07;100643.47;;;18.58;nan
59600;BME280;61855;55.030;73.326;2022-08-04T02:46:36;100644.69;;;18.68;nan
59600;BME280;61855;55.030;73.326;2022-08-04T02:49:08;100658.69;;;18.78;nan
59600;BME280;61855;55.030;73.326;2022-08-04T02:51:55;100654.03;;;18.85;nan
59600;BME280;61855;55.030;73.326;2022-08-04T02:54:24;100649.56;;;18.91;nan
59600;BME280;61855;55.030;73.326;2022-08-04T02:56:55;100651.81;;;19.01;nan
59600;BME280;61855;55.030;73.326;2022-08-04T02:59:25;100655.97;;;19.10;nan
59600;BME280;61855;55.030;73.326;2022-08-04T03:01:55;100653.19;;;19.16;nan
59600;BME280;61855;55.030;73.326;2022-08-04T03:24:28;100654.69;;;19.86;nan
59600;BME280;61855;55.030;73.326;2022-08-04T04:15:23;100653.78;;;21.47;nan
59600;BME280;61855;55.030;73.326;2022-08-04T04:18:05;100648.81;;;21.56;nan
59600;BME280;61855;55.030;73.326;2022-08-04T04:20:39;100649.53;;;21.63;nan
59600;BME280;61855;55.030;73.326;2022-08-04T04:31:32;100644.28;;;21.85;nan
59600;BME280;61855;55.030;73.326;2022-08-04T04:33:57;100638.66;;;21.91;nan
59600;BME280;61855;55.030;73.326;2022-08-04T04:37:05;100632.44;;;21.96;nan
59600;BME280;61855;55.030;73.326;2022-08-04T04:39:39;100644.50;;;21.95;nan
59600;BME280;61855;55.030;73.326;2022-08-04T04:47:53;100629.53;;;22.14;nan
59600;BME280;61855;55.030;73.326;2022-08-04T04:56:24;100633.56;;;22.23;nan
59600;BME280;61855;55.030;73.326;2022-08-04T04:58:53;100635.00;;;22.25;nan
59600;BME280;61855;55.030;73.326;2022-08-04T05:01:37;100634.91;;;22.32;nan
59600;BME280;61855;55.030;73.326;2022-08-04T05:22:03;100629.44;;;22.88;nan
59600;BME280;61855;55.030;73.326;2022-08-04T05:24:37;100615.88;;;22.99;nan
59600;BME280;61855;55.030;73.326;2022-08-04T05:27:19;100614.75;;;23.00;nan
59600;BME280;61855;55.030;73.326;2022-08-04T05:29:51;100604.19;;;23.08;nan
59600;BME280;61855;55.030;73.326;2022-08-04T05:32:23;100613.13;;;23.15;nan
59600;BME280;61855;55.030;73.326;2022-08-04T05:34:56;100618.13;;;23.18;nan
59600;BME280;61855;55.030;73.326;2022-08-04T05:37:29;100618.19;;;23.23;nan
59600;BME280;61855;55.030;73.326;2022-08-04T05:40:00;100616.97;;;23.31;nan
59600;BME280;61855;55.030;73.326;2022-08-04T05:42:37;100614.78;;;23.33;nan
59600;BME280;61855;55.030;73.326;2022-08-04T05:45:14;100604.16;;;23.36;nan
59600;BME280;61855;55.030;73.326;2022-08-04T05:47:51;100619.00;;;23.35;nan
59600;BME280;61855;55.030;73.326;2022-08-04T05:50:19;100611.31;;;23.37;nan
59600;BME280;61855;55.030;73.326;2022-08-04T05:52:46;100607.00;;;23.41;nan
59600;BME280;61855;55.030;73.326;2022-08-04T05:55:15;100625.06;;;23.37;nan
59600;BME280;61855;55.030;73.326;2022-08-04T05:57:43;100603.31;;;23.36;nan
59600;BME280;61855;55.030;73.326;2022-08-04T06:00:10;100598.97;;;23.40;nan
59600;BME280;61855;55.030;73.326;2022-08-04T06:02:37;100604.38;;;23.35;nan
59600;BME280;61855;55.030;73.326;2022-08-04T06:05:05;100582.59;;;23.33;nan
59600;BME280;61855;55.030;73.326;2022-08-04T06:07:32;100598.38;;;23.38;nan
59600;BME280;61855;55.030;73.326;2022-08-04T06:09:59;100588.09;;;23.33;nan
59600;BME280;61855;55.030;73.326;2022-08-04T06:12:36;100597.81;;;23.36;nan
59600;BME280;61855;55.030;73.326;2022-08-04T06:15:16;100588.34;;;23.32;nan
59600;BME280;61855;55.030;73.326;2022-08-04T06:17:53;100584.22;;;23.34;nan
59600;BME280;61855;55.030;73.326;2022-08-04T06:20:21;100588.69;;;23.35;nan
59600;BME280;61855;55.030;73.326;2022-08-04T06:22:56;100578.25;;;23.37;nan
59600;BME280;61855;55.030;73.326;2022-08-04T06:25:37;100581.34;;;23.41;nan
59600;BME280;61855;55.030;73.326;2022-08-04T06:28:08;100590.13;;;23.38;nan
59600;BME280;61855;55.030;73.326;2022-08-04T06:30:35;100582.44;;;23.40;nan
59600;BME280;61855;55.030;73.326;2022-08-04T06:33:03;100580.84;;;23.44;nan
59600;BME280;61855;55.030;73.326;2022-08-04T06:35:39;100599.63;;;23.47;nan
59600;BME280;61855;55.030;73.326;2022-08-04T06:38:07;100584.19;;;23.46;nan
59600;BME280;61855;55.030;73.326;2022-08-04T06:40:33;100580.50;;;23.57;nan
59600;BME280;61855;55.030;73.326;2022-08-04T06:43:05;100598.63;;;23.53;nan
59600;BME280;61855;55.030;73.326;2022-08-04T06:45:36;100580.75;;;23.55;nan
59600;BME280;61855;55.030;73.326;2022-08-04T06:48:12;100582.69;;;23.55;nan
59600;BME280;61855;55.030;73.326;2022-08-04T06:50:47;100569.66;;;23.50;nan
59600;BME280;61855;55.030;73.326;2022-08-04T06:53:16;100577.75;;;23.57;nan
59600;BME280;61855;55.030;73.326;2022-08-04T06:55:44;100576.72;;;23.63;nan
59600;BME280;61855;55.030;73.326;2022-08-04T06:58:12;100567.13;;;23.66;nan
59600;BME280;61855;55.030;73.326;2022-08-04T07:00:45;100585.59;;;23.65;nan
59600;BME280;61855;55.030;73.326;2022-08-04T07:03:14;100575.16;;;23.67;nan
59600;BME280;61855;55.030;73.326;2022-08-04T07:05:41;100581.66;;;23.61;nan
59600;BME280;61855;55.030;73.326;2022-08-04T07:08:18;100578.41;;;23.64;nan
59600;BME280;61855;55.030;73.326;2022-08-04T07:10:45;100568.44;;;23.63;nan
59600;BME280;61855;55.030;73.326;2022-08-04T07:13:12;100571.75;;;23.60;nan
59600;BME280;61855;55.030;73.326;2022-08-04T07:15:43;100575.16;;;23.67;nan
59600;BME280;61855;55.030;73.326;2022-08-04T07:18:11;100566.97;;;23.72;nan
59600;BME280;61855;55.030;73.326;2022-08-04T07:20:40;100572.28;;;23.79;nan
59600;BME280;61855;55.030;73.326;2022-08-04T07:23:07;100573.22;;;23.89;nan
59600;BME280;61855;55.030;73.326;2022-08-04T07:25:35;100574.41;;;23.93;nan
59600;BME280;61855;55.030;73.326;2022-08-04T07:28:01;100575.56;;;23.97;nan
59600;BME280;61855;55.030;73.326;2022-08-04T07:30:29;100569.53;;;24.00;nan
59600;BME280;61855;55.030;73.326;2022-08-04T07:32:56;100559.19;;;24.07;nan
59600;BME280;61855;55.030;73.326;2022-08-04T07:35:23;100558.81;;;24.04;nan
59600;BME280;61855;55.030;73.326;2022-08-04T07:37:50;100553.56;;;24.02;nan
59600;BME280;61855;55.030;73.326;2022-08-04T07:40:16;100559.38;;;24.06;nan
59600;BME280;61855;55.030;73.326;2022-08-04T07:42:42;100578.94;;;24.04;nan
59600;BME280;61855;55.030;73.326;2022-08-04T07:45:09;100570.63;;;23.99;nan
59600;BME280;61855;55.030;73.326;2022-08-04T07:47:36;100559.09;;;24.02;nan
59600;BME280;61855;55.030;73.326;2022-08-04T07:50:08;100553.84;;;24.01;nan
59600;BME280;61855;55.030;73.326;2022-08-04T07:52:35;100554.25;;;24.09;nan
59600;BME280;61855;55.030;73.326;2022-08-04T07:55:02;100544.63;;;24.12;nan
59600;BME280;61855;55.030;73.326;2022-08-04T07:57:28;100559.25;;;24.12;nan
59600;BME280;61855;55.030;73.326;2022-08-04T07:59:55;100544.16;;;24.20;nan
59600;BME280;61855;55.030;73.326;2022-08-04T08:02:22;100556.03;;;24.20;nan
59600;BME280;61855;55.030;73.326;2022-08-04T08:04:49;100555.25;;;24.25;nan
59600;BME280;61855;55.030;73.326;2022-08-04T08:07:18;100545.13;;;24.31;nan
59600;BME280;61855;55.030;73.326;2022-08-04T08:09:44;100544.03;;;24.32;nan
59600;BME280;61855;55.030;73.326;2022-08-04T08:12:10;100533.03;;;24.37;nan
59600;BME280;61855;55.030;73.326;2022-08-04T08:14:38;100548.22;;;24.39;nan
59600;BME280;61855;55.030;73.326;2022-08-04T08:17:06;100541.38;;;24.42;nan
59600;BME280;61855;55.030;73.326;2022-08-04T08:19:33;100535.03;;;24.41;nan
59600;BME280;61855;55.030;73.326;2022-08-04T08:22:00;100536.69;;;24.42;nan
59600;BME280;61855;55.030;73.326;2022-08-04T08:24:32;100545.59;;;24.49;nan
59600;BME280;61855;55.030;73.326;2022-08-04T08:27:01;100552.50;;;24.52;nan
59600;BME280;61855;55.030;73.326;2022-08-04T08:29:29;100542.63;;;24.56;nan
59600;BME280;61855;55.030;73.326;2022-08-04T08:31:55;100538.25;;;24.60;nan
59600;BME280;61855;55.030;73.326;2022-08-04T08:34:22;100534.41;;;24.61;nan
59600;BME280;61855;55.030;73.326;2022-08-04T08:36:56;100535.19;;;24.56;nan
59600;BME280;61855;55.030;73.326;2022-08-04T08:39:44;100533.31;;;24.62;nan
59600;BME280;61855;55.030;73.326;2022-08-04T09:10:58;100519.56;;;24.94;nan
59600;BME280;61855;55.030;73.326;2022-08-04T09:13:44;100533.38;;;24.94;nan
59600;BME280;61855;55.030;73.326;2022-08-04T09:19:32;100519.63;;;24.72;nan
59600;BME280;61855;55.030;73.326;2022-08-04T09:22:03;100531.88;;;24.81;nan
59600;BME280;61855;55.030;73.326;2022-08-04T09:24:52;100504.28;;;24.81;nan
59600;BME280;61855;55.030;73.326;2022-08-04T09:27:25;100522.91;;;24.96;nan
59600;BME280;61855;55.030;73.326;2022-08-04T09:30:05;100515.97;;;24.93;nan
59600;BME280;61855;55.030;73.326;2022-08-04T09:35:41;100517.41;;;25.01;nan
59600;BME280;61855;55.030;73.326;2022-08-04T09:38:26;100523.75;;;25.01;nan
59600;BME280;61855;55.030;73.326;2022-08-04T09:41:15;100511.63;;;25.02;nan
59600;BME280;61855;55.030;73.326;2022-08-04T09:44:17;100514.66;;;25.06;nan
59600;BME280;61855;55.030;73.326;2022-08-04T09:46:56;100519.94;;;25.07;nan
59600;BME280;61855;55.030;73.326;2022-08-04T09:58:08;100521.44;;;25.20;nan
59600;BME280;61855;55.030;73.326;2022-08-04T10:01:00;100523.13;;;25.26;nan
59600;BME280;61855;55.030;73.326;2022-08-04T10:03:32;100521.22;;;25.31;nan
59600;BME280;61855;55.030;73.326;2022-08-04T10:23:10;100510.84;;;25.48;nan
59600;BME280;61855;55.030;73.326;2022-08-04T10:25:48;100510.34;;;25.57;nan
59600;BME280;61855;55.030;73.326;2022-08-04T10:28:23;100517.56;;;25.58;nan
59600;BME280;61855;55.030;73.326;2022-08-04T10:31:06;100509.56;;;25.61;nan
59600;BME280;61855;55.030;73.326;2022-08-04T10:33:53;100508.22;;;25.69;nan
59600;BME280;61855;55.030;73.326;2022-08-04T10:36:31;100515.16;;;25.76;nan
59600;BME280;61855;55.030;73.326;2022-08-04T10:39:13;100516.88;;;25.87;nan
59600;BME280;61855;55.030;73.326;2022-08-04T10:41:55;100500.59;;;25.91;nan
59600;BME280;61855;55.030;73.326;2022-08-04T10:44:37;100512.47;;;25.96;nan
59600;BME280;61855;55.030;73.326;2022-08-04T10:47:23;100507.13;;;26.42;nan
59600;BME280;61855;55.030;73.326;2022-08-04T10:49:55;100506.50;;;27.86;nan
59600;BME280;61855;55.030;73.326;2022-08-04T10:52:43;100500.00;;;29.32;nan
59600;BME280;61855;55.030;73.326;2022-08-04T10:55:19;100508.53;;;30.35;nan
59600;BME280;61855;55.030;73.326;2022-08-04T10:58:15;100504.81;;;31.28;nan
59600;BME280;61855;55.030;73.326;2022-08-04T11:00:45;100500.03;;;32.15;nan
59600;BME280;61855;55.030;73.326;2022-08-04T11:04:03;100501.22;;;32.50;nan
59600;BME280;61855;55.030;73.326;2022-08-04T11:06:23;100499.47;;;32.98;nan
59600;BME280;61855;55.030;73.326;2022-08-04T11:08:53;100511.72;;;33.33;nan
59600;BME280;61855;55.030;73.326;2022-08-04T11:14:02;100491.22;;;34.25;nan
59600;BME280;61855;55.030;73.326;2022-08-04T11:30:18;100495.81;;;35.78;nan
59600;BME280;61855;55.030;73.326;2022-08-04T11:33:15;100493.13;;;35.90;nan
59600;BME280;61855;55.030;73.326;2022-08-04T11:36:02;100496.91;;;36.24;nan
59600;BME280;61855;55.030;73.326;2022-08-04T11:39:14;100494.44;;;35.55;nan
59600;BME280;61855;55.030;73.326;2022-08-04T11:42:05;100490.03;;;35.37;nan
59600;BME280;61855;55.030;73.326;2022-08-04T11:48:10;100475.44;;;35.90;nan
59600;BME280;61855;55.030;73.326;2022-08-04T11:50:42;100484.34;;;36.00;nan
59600;BME280;61855;55.030;73.326;2022-08-04T11:53:15;100482.81;;;36.32;nan
59600;BME280;61855;55.030;73.326;2022-08-04T11:55:49;100480.31;;;36.10;nan
59600;BME280;61855;55.030;73.326;2022-08-04T11:58:18;100479.19;;;36.03;nan
59600;BME280;61855;55.030;73.326;2022-08-04T12:06:29;100484.72;;;35.53;nan
59600;BME280;61855;55.030;73.326;2022-08-04T12:14:42;100466.28;;;35.26;nan
59600;BME280;61855;55.030;73.326;2022-08-04T12:17:14;100475.97;;;35.46;nan
59600;BME280;61855;55.030;73.326;2022-08-04T12:19:54;100459.94;;;35.84;nan
59600;BME280;61855;55.030;73.326;2022-08-04T12:22:27;100467.94;;;36.11;nan
59600;BME280;61855;55.030;73.326;2022-08-04T12:27:32;100462.88;;;35.87;nan
59600;BME280;61855;55.030;73.326;2022-08-04T12:30:05;100455.09;;;35.93;nan
59600;BME280;61855;55.030;73.326;2022-08-04T12:32:37;100464.81;;;35.66;nan
59600;BME280;61855;55.030;73.326;2022-08-04T12:35:12;100466.84;;;35.57;nan
59600;BME280;61855;55.030;73.326;2022-08-04T12:38:04;100465.06;;;35.53;nan
59600;BME280;61855;55.030;73.326;2022-08-04T12:40:44;100448.66;;;35.17;nan
59600;BME280;61855;55.030;73.326;2022-08-04T12:43:32;100456.75;;;35.01;nan
59600;BME280;61855;55.030;73.326;2022-08-04T12:46:04;100461.66;;;35.30;nan
59600;BME280;61855;55.030;73.326;2022-08-04T12:48:45;100455.84;;;35.35;nan
59600;BME280;61855;55.030;73.326;2022-08-04T12:51:12;100461.72;;;35.59;nan
59600;BME280;61855;55.030;73.326;2022-08-04T12:53:41;100469.94;;;35.73;nan
59600;BME280;61855;55.030;73.326;2022-08-04T12:56:10;100469.31;;;35.50;nan
59600;BME280;61855;55.030;73.326;2022-08-04T12:58:40;100464.50;;;35.13;nan
59600;BME280;61855;55.030;73.326;2022-08-04T13:01:10;100465.97;;;35.19;nan
59600;BME280;61855;55.030;73.326;2022-08-04T13:03:40;100472.84;;;35.38;nan
59600;BME280;61855;55.030;73.326;2022-08-04T13:06:10;100472.66;;;35.44;nan
59600;BME280;61855;55.030;73.326;2022-08-04T13:08:38;100471.53;;;35.36;nan
59600;BME280;61855;55.030;73.326;2022-08-04T13:11:07;100473.09;;;35.08;nan
59600;BME280;61855;55.030;73.326;2022-08-04T13:13:36;100468.28;;;35.17;nan
59600;BME280;61855;55.030;73.326;2022-08-04T13:16:05;100480.34;;;35.00;nan
59600;BME280;61855;55.030;73.326;2022-08-04T13:18:37;100467.50;;;34.82;nan
59600;BME280;61855;55.030;73.326;2022-08-04T13:21:21;100472.09;;;34.52;nan
59600;BME280;61855;55.030;73.326;2022-08-04T13:24:01;100470.81;;;34.33;nan
59600;BME280;61855;55.030;73.326;2022-08-04T13:26:29;100468.63;;;34.04;nan
59600;BME280;61855;55.030;73.326;2022-08-04T13:29:04;100470.44;;;33.69;nan
59600;BME280;61855;55.030;73.326;2022-08-04T13:31:32;100478.69;;;33.35;nan
59600;BME280;61855;55.030;73.326;2022-08-04T13:34:04;100484.09;;;33.09;nan
59600;BME280;61855;55.030;73.326;2022-08-04T13:36:33;100481.75;;;32.81;nan
59600;BME280;61855;55.030;73.326;2022-08-04T13:39:27;100488.91;;;32.51;nan
59600;BME280;61855;55.030;73.326;2022-08-04T13:41:55;100486.00;;;32.06;nan
59600;BME280;61855;55.030;73.326;2022-08-04T13:44:27;100478.34;;;31.98;nan
59600;BME280;61855;55.030;73.326;2022-08-04T13:47:05;100489.38;;;31.90;nan
59600;BME280;61855;55.030;73.326;2022-08-04T13:49:31;100479.69;;;32.01;nan
59600;BME280;61855;55.030;73.326;2022-08-04T13:52:02;100493.22;;;32.07;nan
59600;BME280;61855;55.030;73.326;2022-08-04T13:54:36;100478.91;;;32.23;nan
59600;BME280;61855;55.030;73.326;2022-08-04T13:57:09;100486.75;;;32.34;nan
59600;BME280;61855;55.030;73.326;2022-08-04T13:59:37;100486.97;;;32.24;nan
59600;BME280;61855;55.030;73.326;2022-08-04T14:02:07;100491.91;;;32.41;nan
59600;BME280;61855;55.030;73.326;2022-08-04T14:04:40;100486.97;;;32.38;nan
59600;BME280;61855;55.030;73.326;2022-08-04T14:07:13;100485.47;;;32.04;nan
59600;BME280;61855;55.030;73.326;2022-08-04T14:09:40;100494.75;;;31.86;nan
59600;BME280;61855;55.030;73.326;2022-08-04T14:12:16;100488.66;;;31.71;nan
59600;BME280;61855;55.030;73.326;2022-08-04T14:14:50;100483.63;;;31.27;nan
59600;BME280;61855;55.030;73.326;2022-08-04T14:17:26;100487.81;;;30.97;nan
59600;BME280;61855;55.030;73.326;2022-08-04T14:20:02;100490.06;;;30.58;nan
59600;BME280;61855;55.030;73.326;2022-08-04T14:22:31;100487.84;;;30.17;nan
59600;BME280;61855;55.030;73.326;2022-08-04T14:27:54;100493.91;;;28.62;nan
59600;BME280;61855;55.030;73.326;2022-08-04T14:33:11;100499.00;;;27.86;nan
59600;BME280;61855;55.030;73.326;2022-08-04T14:35:38;100503.56;;;27.42;nan
59600;BME280;61855;55.030;73.326;2022-08-04T14:38:06;100500.84;;;27.02;nan
59600;BME280;61855;55.030;73.326;2022-08-04T14:40:39;100496.59;;;26.49;nan
59600;BME280;61855;55.030;73.326;2022-08-04T14:43:08;100501.81;;;26.25;nan
59600;BME280;61855;55.030;73.326;2022-08-04T14:45:37;100498.13;;;26.04;nan
59600;BME280;61855;55.030;73.326;2022-08-04T14:48:14;100509.91;;;25.80;nan
59600;BME280;61855;55.030;73.326;2022-08-04T14:50:44;100494.75;;;25.40;nan
59600;BME280;61855;55.030;73.326;2022-08-04T14:53:23;100507.22;;;25.06;nan
59600;BME280;61855;55.030;73.326;2022-08-04T14:55:53;100508.88;;;24.75;nan
59600;BME280;61855;55.030;73.326;2022-08-04T14:58:31;100513.69;;;24.32;nan
59600;BME280;61855;55.030;73.326;2022-08-04T15:00:59;100518.19;;;23.94;nan
59600;BME280;61855;55.030;73.326;2022-08-04T15:03:27;100526.91;;;23.65;nan
59600;BME280;61855;55.030;73.326;2022-08-04T15:05:58;100530.59;;;23.37;nan
59600;BME280;61855;55.030;73.326;2022-08-04T15:08:26;100535.22;;;23.15;nan
59600;BME280;61855;55.030;73.326;2022-08-04T15:10:57;100536.78;;;22.94;nan
59600;BME280;61855;55.030;73.326;2022-08-04T15:13:30;100535.94;;;22.77;nan
59600;BME280;61855;55.030;73.326;2022-08-04T15:15:57;100528.50;;;22.61;nan
59600;BME280;61855;55.030;73.326;2022-08-04T15:18:23;100536.44;;;22.46;nan
59600;BME280;61855;55.030;73.326;2022-08-04T15:20:56;100534.97;;;22.27;nan
59600;BME280;61855;55.030;73.326;2022-08-04T15:23:23;100542.53;;;22.19;nan
59600;BME280;61855;55.030;73.326;2022-08-04T15:25:52;100549.72;;;22.09;nan
59600;BME280;61855;55.030;73.326;2022-08-04T15:28:28;100546.44;;;21.95;nan
59600;BME280;61855;55.030;73.326;2022-08-04T15:31:03;100548.72;;;21.87;nan
59600;BME280;61855;55.030;73.326;2022-08-04T15:33:30;100549.66;;;21.81;nan
59600;BME280;61855;55.030;73.326;2022-08-04T15:39:23;100552.06;;;21.66;nan
59600;BME280;61855;55.030;73.326;2022-08-04T15:41:57;100554.59;;;21.55;nan
59600;BME280;61855;55.030;73.326;2022-08-04T15:47:18;100557.56;;;21.31;nan
59600;BME280;61855;55.030;73.326;2022-08-04T15:50:08;100563.41;;;21.23;nan
59600;BME280;61855;55.030;73.326;2022-08-04T15:58:08;100562.06;;;21.02;nan
59600;BME280;61855;55.030;73.326;2022-08-04T16:21:58;100572.06;;;20.55;nan
59600;BME280;61855;55.030;73.326;2022-08-04T16:24:38;100577.81;;;20.54;nan
59600;BME280;61855;55.030;73.326;2022-08-04T16:27:06;100573.63;;;20.51;nan
59600;BME280;61855;55.030;73.326;2022-08-04T16:29:45;100577.03;;;20.47;nan
59600;BME280;61855;55.030;73.326;2022-08-04T16:32:21;100581.09;;;20.44;nan
59600;BME280;61855;55.030;73.326;2022-08-04T16:35:00;100582.41;;;20.42;nan
59600;BME280;61855;55.030;73.326;2022-08-04T16:37:41;100583.69;;;20.39;nan
59600;BME280;61855;55.030;73.326;2022-08-04T16:40:30;100583.31;;;20.36;nan
59600;BME280;61855;55.030;73.326;2022-08-04T16:45:40;100579.59;;;20.30;nan
59600;BME280;61855;55.030;73.326;2022-08-04T16:48:07;100580.13;;;20.20;nan
59600;BME280;61855;55.030;73.326;2022-08-04T16:50:44;100585.66;;;20.14;nan
59600;BME280;61855;55.030;73.326;2022-08-04T16:53:11;100581.47;;;20.11;nan
59600;BME280;61855;55.030;73.326;2022-08-04T16:55:37;100571.38;;;20.12;nan
59600;BME280;61855;55.030;73.326;2022-08-04T16:58:04;100583.31;;;20.17;nan
59600;BME280;61855;55.030;73.326;2022-08-04T17:00:32;100576.59;;;20.13;nan
59600;BME280;61855;55.030;73.326;2022-08-04T17:03:08;100575.25;;;20.04;nan
59600;BME280;61855;55.030;73.326;2022-08-04T17:05:34;100582.34;;;19.94;nan
59600;BME280;61855;55.030;73.326;2022-08-04T17:08:07;100575.88;;;19.88;nan
59600;BME280;61855;55.030;73.326;2022-08-04T17:10:43;100579.66;;;19.87;nan
59600;BME280;61855;55.030;73.326;2022-08-04T17:13:30;100576.56;;;19.84;nan
59600;BME280;61855;55.030;73.326;2022-08-04T17:16:03;100586.06;;;19.81;nan
59600;BME280;61855;55.030;73.326;2022-08-04T17:18:33;100582.56;;;19.74;nan
59600;BME280;61855;55.030;73.326;2022-08-04T17:21:04;100585.59;;;19.66;nan
59600;BME280;61855;55.030;73.326;2022-08-04T17:26:20;100572.66;;;19.55;nan
59600;BME280;61855;55.030;73.326;2022-08-04T17:28:53;100572.50;;;19.50;nan
59600;BME280;61855;55.030;73.326;2022-08-04T17:31:24;100577.81;;;19.45;nan
59600;BME280;61855;55.030;73.326;2022-08-04T17:33:53;100581.22;;;19.40;nan
59600;BME280;61855;55.030;73.326;2022-08-04T17:36:37;100578.94;;;19.37;nan
59600;BME280;61855;55.030;73.326;2022-08-04T17:39:13;100588.88;;;19.32;nan
59600;BME280;61855;55.030;73.326;2022-08-04T17:41:40;100583.59;;;19.30;nan
59600;BME280;61855;55.030;73.326;2022-08-04T17:44:16;100589.75;;;19.26;nan
59600;BME280;61855;55.030;73.326;2022-08-04T17:46:44;100590.38;;;19.28;nan
59600;BME280;61855;55.030;73.326;2022-08-04T17:51:58;100600.31;;;19.22;nan
59600;BME280;61855;55.030;73.326;2022-08-04T17:54:35;100603.94;;;19.16;nan
59600;BME280;61855;55.030;73.326;2022-08-04T17:57:21;100599.75;;;19.14;nan
59600;BME280;61855;55.030;73.326;2022-08-04T17:59:52;100602.34;;;19.09;nan
59600;BME280;61855;55.030;73.326;2022-08-04T18:02:31;100602.16;;;19.04;nan
59600;BME280;61855;55.030;73.326;2022-08-04T18:04:58;100598.34;;;19.05;nan
59600;BME280;61855;55.030;73.326;2022-08-04T18:07:36;100596.69;;;19.04;nan
59600;BME280;61855;55.030;73.326;2022-08-04T18:10:03;100607.56;;;19.10;nan
59600;BME280;61855;55.030;73.326;2022-08-04T18:12:33;100608.84;;;19.08;nan
59600;BME280;61855;55.030;73.326;2022-08-04T18:15:21;100606.19;;;19.01;nan
59600;BME280;61855;55.030;73.326;2022-08-04T18:17:48;100612.69;;;19.00;nan
59600;BME280;61855;55.030;73.326;2022-08-04T18:20:17;100617.13;;;19.01;nan